Terminal Aerodrome Forecast
Issued by NWS Northern Indiana

Home | Current Version | Previous Version | Text Only | Print | Product List | Glossary Off
Versions: 1 2 3 4 5 6 7 8 9 10 11 12 13 14 15 16 17 18 19 20

000
FTUS43 KIWX 260936 AAB
TAFFWA
TAF AMD
KFWA 260936Z 2610/2706 VRB02KT 1SM BR SCT005
      TEMPO 2610/2612 1/2SM FG BKN002
     FM261200 VRB02KT 4SM BR FEW004 SCT200
     FM261400 06006KT P6SM SCT050 BKN200
     FM270000 VRB03KT P6SM SCT250=

USA.gov is the U.S. government's official web portal to all federal, state and local government web resources and services.